Terminal Aerodrome Forecast
Issued by NWS Jackson, MS

Home | Current Version | Previous Version | Text Only | Print | Product List | Glossary On
Versions: 1 2 3 4 5 6 7 8 9 10 11 12 13 14 15 16 17
000
FTUS44 KJAN 031123
TAFJAN
TAF
KJAN 031123Z 0312/0412 22007KT P6SM SCT150 BKN250
     FM031600 23011G18KT P6SM SCT050 BKN250
     FM032000 21010G18KT P6SM VCTS SCT040CB BKN100
     FM040600 19010KT 5SM -TSRA BKN025 OVC050CB=

USA.gov is the U.S. government's official web portal to all federal, state and local government web resources and services.